Terminal Aerodrome Forecast
Issued by NWS Upton, NY

Home | Current Version | Previous Version | Text Only | Print | Product List | Glossary On
Versions: 1 2 3 4 5 6 7 8 9 10 11 12 13 14 15 16 17 18 19 20 21 22 23 24 25 26 27 28 29 30 31 32 33 34 35 36
659
FTUS41 KOKX 222033 AAB
TAFEWR
TAF AMD
KEWR 222033Z 2221/2324 16008KT P6SM FEW050 BKN190
     FM222300 13006KT P6SM VCTS SCT035CB BKN070
      TEMPO 2301/2303 5SM TSRA BKN025CB
     FM230400 08008KT P6SM SHRA SCT025 OVC060
     FM231000 04009KT P6SM SCT025
     FM231600 12010KT P6SM BKN035=

USA.gov is the U.S. government's official web portal to all federal, state and local government web resources and services.